sensor_id;sensor_type;location;lat;lon;timestamp;pressure;altitude;pressure_sealevel;temperature;humidity
27805;BME280;15183;51.350;11.102;2023-06-19T00:02:04;99712.91;;;25.43;46.33
27805;BME280;15183;51.350;11.102;2023-06-19T00:04:30;99719.56;;;25.55;45.50
27805;BME280;15183;51.350;11.102;2023-06-19T00:07:00;99698.88;;;25.50;45.92
27805;BME280;15183;51.350;11.102;2023-06-19T00:09:26;99707.72;;;25.60;46.21
27805;BME280;15183;51.350;11.102;2023-06-19T00:11:53;99702.44;;;25.63;45.52
27805;BME280;15183;51.350;11.102;2023-06-19T00:14:19;99695.69;;;25.69;45.96
27805;BME280;15183;51.350;11.102;2023-06-19T00:16:46;99690.13;;;25.66;46.19
27805;BME280;15183;51.350;11.102;2023-06-19T00:19:12;99692.16;;;25.69;46.12
27805;BME280;15183;51.350;11.102;2023-06-19T00:21:39;99702.34;;;25.72;46.16
27805;BME280;15183;51.350;11.102;2023-06-19T00:24:05;99697.13;;;25.67;46.36
27805;BME280;15183;51.350;11.102;2023-06-19T00:26:32;99683.31;;;25.60;45.85
27805;BME280;15183;51.350;11.102;2023-06-19T00:28:58;99696.66;;;25.65;45.74
27805;BME280;15183;51.350;11.102;2023-06-19T00:31:25;99693.28;;;25.68;45.53
27805;BME280;15183;51.350;11.102;2023-06-19T00:33:53;99699.06;;;25.66;45.75
27805;BME280;15183;51.350;11.102;2023-06-19T00:36:20;99689.53;;;25.60;45.85
27805;BME280;15183;51.350;11.102;2023-06-19T00:38:47;99684.38;;;25.46;46.76
27805;BME280;15183;51.350;11.102;2023-06-19T00:41:15;99699.88;;;25.37;46.77
27805;BME280;15183;51.350;11.102;2023-06-19T00:43:43;99683.44;;;25.12;46.92
27805;BME280;15183;51.350;11.102;2023-06-19T00:46:11;99680.50;;;24.96;47.35
27805;BME280;15183;51.350;11.102;2023-06-19T00:48:38;99685.91;;;24.96;47.76
27805;BME280;15183;51.350;11.102;2023-06-19T00:51:05;99678.81;;;24.82;47.27
27805;BME280;15183;51.350;11.102;2023-06-19T00:53:33;99679.59;;;24.83;47.45
27805;BME280;15183;51.350;11.102;2023-06-19T00:56:02;99681.66;;;24.86;47.21
27805;BME280;15183;51.350;11.102;2023-06-19T00:58:29;99665.09;;;24.79;47.48
27805;BME280;15183;51.350;11.102;2023-06-19T01:00:55;99653.50;;;24.69;47.57
27805;BME280;15183;51.350;11.102;2023-06-19T01:03:23;99659.38;;;24.71;47.36
27805;BME280;15183;51.350;11.102;2023-06-19T01:05:50;99667.16;;;24.82;47.47
27805;BME280;15183;51.350;11.102;2023-06-19T01:08:43;99671.94;;;24.85;47.76
27805;BME280;15183;51.350;11.102;2023-06-19T01:11:11;99634.06;;;24.67;47.58
27805;BME280;15183;51.350;11.102;2023-06-19T01:14:06;99635.94;;;24.67;47.45
27805;BME280;15183;51.350;11.102;2023-06-19T01:16:35;99661.28;;;24.71;48.08
27805;BME280;15183;51.350;11.102;2023-06-19T01:19:03;99657.63;;;24.67;47.94
27805;BME280;15183;51.350;11.102;2023-06-19T01:21:31;99643.81;;;24.60;48.34
27805;BME280;15183;51.350;11.102;2023-06-19T01:23:58;99608.03;;;24.36;48.20
27805;BME280;15183;51.350;11.102;2023-06-19T01:26:24;99643.78;;;24.68;47.98
27805;BME280;15183;51.350;11.102;2023-06-19T01:28:55;99630.56;;;24.58;48.45
27805;BME280;15183;51.350;11.102;2023-06-19T01:31:34;99639.31;;;24.64;48.53
27805;BME280;15183;51.350;11.102;2023-06-19T01:34:05;99642.88;;;24.55;48.82
27805;BME280;15183;51.350;11.102;2023-06-19T01:36:33;99640.16;;;24.55;48.92
27805;BME280;15183;51.350;11.102;2023-06-19T01:39:00;99628.41;;;24.42;48.75
27805;BME280;15183;51.350;11.102;2023-06-19T01:41:28;99626.63;;;24.47;48.48
27805;BME280;15183;51.350;11.102;2023-06-19T01:43:57;99601.34;;;24.34;48.45
27805;BME280;15183;51.350;11.102;2023-06-19T01:46:23;99608.94;;;24.49;48.56
27805;BME280;15183;51.350;11.102;2023-06-19T01:48:50;99610.31;;;24.64;48.43
27805;BME280;15183;51.350;11.102;2023-06-19T01:51:16;99612.34;;;24.76;48.20
27805;BME280;15183;51.350;11.102;2023-06-19T01:53:43;99599.13;;;24.75;47.80
27805;BME280;15183;51.350;11.102;2023-06-19T01:56:09;99615.75;;;24.94;48.32
27805;BME280;15183;51.350;11.102;2023-06-19T01:58:36;99613.34;;;25.02;48.22
27805;BME280;15183;51.350;11.102;2023-06-19T02:01:02;99590.06;;;25.00;47.81
27805;BME280;15183;51.350;11.102;2023-06-19T02:03:28;99603.22;;;25.11;47.88
27805;BME280;15183;51.350;11.102;2023-06-19T02:05:55;99598.59;;;25.11;46.93
27805;BME280;15183;51.350;11.102;2023-06-19T02:08:22;99611.00;;;25.12;47.30
27805;BME280;15183;51.350;11.102;2023-06-19T02:10:48;99610.69;;;25.14;47.39
27805;BME280;15183;51.350;11.102;2023-06-19T02:13:15;99622.31;;;25.14;46.85
27805;BME280;15183;51.350;11.102;2023-06-19T02:15:41;99608.19;;;25.09;47.05
27805;BME280;15183;51.350;11.102;2023-06-19T02:18:08;99620.16;;;25.08;47.16
27805;BME280;15183;51.350;11.102;2023-06-19T02:20:35;99604.91;;;24.94;47.48
27805;BME280;15183;51.350;11.102;2023-06-19T02:23:01;99608.53;;;24.98;47.34
27805;BME280;15183;51.350;11.102;2023-06-19T02:25:27;99584.75;;;24.83;47.38
27805;BME280;15183;51.350;11.102;2023-06-19T02:27:54;99613.34;;;25.02;47.14
27805;BME280;15183;51.350;11.102;2023-06-19T02:30:20;99611.09;;;25.04;46.86
27805;BME280;15183;51.350;11.102;2023-06-19T02:32:47;99612.78;;;25.08;47.28
27805;BME280;15183;51.350;11.102;2023-06-19T02:35:14;99617.50;;;25.20;46.97
27805;BME280;15183;51.350;11.102;2023-06-19T02:37:41;99602.38;;;25.19;46.88
27805;BME280;15183;51.350;11.102;2023-06-19T02:40:08;99617.00;;;25.27;47.32
27805;BME280;15183;51.350;11.102;2023-06-19T02:42:36;99603.94;;;25.20;47.19
27805;BME280;15183;51.350;11.102;2023-06-19T02:45:03;99613.00;;;25.24;47.15
27805;BME280;15183;51.350;11.102;2023-06-19T02:47:30;99594.09;;;25.15;46.73
27805;BME280;15183;51.350;11.102;2023-06-19T02:49:58;99592.31;;;25.20;47.04
27805;BME280;15183;51.350;11.102;2023-06-19T02:52:26;99593.50;;;25.31;46.45
27805;BME280;15183;51.350;11.102;2023-06-19T02:54:52;99597.81;;;25.32;46.87
27805;BME280;15183;51.350;11.102;2023-06-19T02:57:18;99593.31;;;25.36;46.89
27805;BME280;15183;51.350;11.102;2023-06-19T02:59:45;99592.31;;;25.41;46.32
27805;BME280;15183;51.350;11.102;2023-06-19T03:02:12;99587.81;;;25.45;46.88
27805;BME280;15183;51.350;11.102;2023-06-19T03:04:39;99590.81;;;25.52;46.42
27805;BME280;15183;51.350;11.102;2023-06-19T03:07:06;99593.97;;;25.54;46.25
27805;BME280;15183;51.350;11.102;2023-06-19T03:09:33;99592.50;;;25.57;46.41
27805;BME280;15183;51.350;11.102;2023-06-19T03:11:59;99592.41;;;25.53;46.21
27805;BME280;15183;51.350;11.102;2023-06-19T03:14:26;99606.88;;;25.57;46.19
27805;BME280;15183;51.350;11.102;2023-06-19T03:16:52;99606.75;;;25.54;46.53
27805;BME280;15183;51.350;11.102;2023-06-19T03:19:18;99611.25;;;25.50;46.41
27805;BME280;15183;51.350;11.102;2023-06-19T03:21:45;99603.81;;;25.38;46.48
27805;BME280;15183;51.350;11.102;2023-06-19T03:24:11;99605.75;;;25.37;46.46
27805;BME280;15183;51.350;11.102;2023-06-19T03:26:38;99614.19;;;25.36;47.06
27805;BME280;15183;51.350;11.102;2023-06-19T03:29:04;99609.13;;;25.13;47.32
27805;BME280;15183;51.350;11.102;2023-06-19T03:31:30;99585.41;;;24.80;47.85
27805;BME280;15183;51.350;11.102;2023-06-19T03:33:57;99605.66;;;24.74;47.90
27805;BME280;15183;51.350;11.102;2023-06-19T03:36:23;99583.91;;;24.52;48.16
27805;BME280;15183;51.350;11.102;2023-06-19T03:38:51;99609.19;;;24.65;48.39
27805;BME280;15183;51.350;11.102;2023-06-19T03:41:18;99602.00;;;24.69;48.17
27805;BME280;15183;51.350;11.102;2023-06-19T03:43:44;99600.72;;;24.76;48.28
27805;BME280;15183;51.350;11.102;2023-06-19T03:46:10;99615.00;;;24.85;47.94
27805;BME280;15183;51.350;11.102;2023-06-19T03:48:37;99616.88;;;24.93;48.16
27805;BME280;15183;51.350;11.102;2023-06-19T03:51:03;99602.75;;;24.88;48.10
27805;BME280;15183;51.350;11.102;2023-06-19T03:53:30;99613.97;;;24.98;48.37
27805;BME280;15183;51.350;11.102;2023-06-19T03:55:56;99598.72;;;24.94;47.97
27805;BME280;15183;51.350;11.102;2023-06-19T03:58:23;99601.69;;;25.01;47.90
27805;BME280;15183;51.350;11.102;2023-06-19T04:00:49;99585.81;;;24.91;48.43
27805;BME280;15183;51.350;11.102;2023-06-19T04:03:15;99605.84;;;24.98;48.58
27805;BME280;15183;51.350;11.102;2023-06-19T04:05:42;99614.28;;;25.06;48.34
27805;BME280;15183;51.350;11.102;2023-06-19T04:08:08;99599.03;;;24.92;47.93
27805;BME280;15183;51.350;11.102;2023-06-19T04:10:34;99598.56;;;24.90;48.56
27805;BME280;15183;51.350;11.102;2023-06-19T04:13:01;99603.78;;;24.95;48.61
27805;BME280;15183;51.350;11.102;2023-06-19T04:15:27;99611.00;;;24.91;48.47
27805;BME280;15183;51.350;11.102;2023-06-19T04:17:54;99611.06;;;24.82;48.57
27805;BME280;15183;51.350;11.102;2023-06-19T04:20:20;99618.09;;;24.75;48.66
27805;BME280;15183;51.350;11.102;2023-06-19T04:22:46;99606.03;;;24.63;48.38
27805;BME280;15183;51.350;11.102;2023-06-19T04:25:13;99611.56;;;24.67;48.46
27805;BME280;15183;51.350;11.102;2023-06-19T04:27:39;99614.75;;;24.78;48.19
27805;BME280;15183;51.350;11.102;2023-06-19T04:30:06;99612.19;;;24.81;47.87
27805;BME280;15183;51.350;11.102;2023-06-19T04:32:34;99616.28;;;24.88;48.26
27805;BME280;15183;51.350;11.102;2023-06-19T04:35:10;99624.81;;;24.98;48.38
27805;BME280;15183;51.350;11.102;2023-06-19T04:37:36;99604.97;;;24.85;47.70
27805;BME280;15183;51.350;11.102;2023-06-19T04:40:03;99626.22;;;25.05;47.57
27805;BME280;15183;51.350;11.102;2023-06-19T04:42:31;99635.59;;;25.07;48.17
27805;BME280;15183;51.350;11.102;2023-06-19T04:44:57;99627.88;;;24.97;48.63
27805;BME280;15183;51.350;11.102;2023-06-19T04:47:25;99637.41;;;25.03;48.35
27805;BME280;15183;51.350;11.102;2023-06-19T04:49:51;99644.13;;;24.97;48.75
27805;BME280;15183;51.350;11.102;2023-06-19T04:52:18;99633.13;;;24.93;49.06
27805;BME280;15183;51.350;11.102;2023-06-19T04:54:44;99624.91;;;24.81;49.19
27805;BME280;15183;51.350;11.102;2023-06-19T04:57:11;99635.72;;;24.90;48.72
27805;BME280;15183;51.350;11.102;2023-06-19T04:59:37;99628.09;;;24.83;49.35
27805;BME280;15183;51.350;11.102;2023-06-19T05:02:04;99609.00;;;24.70;48.64
27805;BME280;15183;51.350;11.102;2023-06-19T05:04:30;99635.09;;;24.84;49.10
27805;BME280;15183;51.350;11.102;2023-06-19T05:06:59;99636.38;;;24.87;48.84
27805;BME280;15183;51.350;11.102;2023-06-19T05:09:25;99634.63;;;24.82;49.13
27805;BME280;15183;51.350;11.102;2023-06-19T05:11:52;99627.97;;;24.70;49.03
27805;BME280;15183;51.350;11.102;2023-06-19T05:14:19;99634.81;;;24.77;49.19
27805;BME280;15183;51.350;11.102;2023-06-19T05:16:45;99634.03;;;24.76;49.10
27805;BME280;15183;51.350;11.102;2023-06-19T05:19:11;99629.22;;;24.82;48.76
27805;BME280;15183;51.350;11.102;2023-06-19T05:21:38;99632.22;;;24.89;49.34
27805;BME280;15183;51.350;11.102;2023-06-19T05:24:04;99645.56;;;24.94;49.16
27805;BME280;15183;51.350;11.102;2023-06-19T05:26:31;99645.38;;;24.99;48.86
27805;BME280;15183;51.350;11.102;2023-06-19T05:28:57;99627.72;;;24.93;49.18
27805;BME280;15183;51.350;11.102;2023-06-19T05:31:24;99629.59;;;25.02;49.53
27805;BME280;15183;51.350;11.102;2023-06-19T05:33:50;99647.06;;;25.13;49.11
27805;BME280;15183;51.350;11.102;2023-06-19T05:36:16;99644.34;;;25.13;49.00
27805;BME280;15183;51.350;11.102;2023-06-19T05:38:43;99642.44;;;25.13;49.06
27805;BME280;15183;51.350;11.102;2023-06-19T05:41:09;99627.34;;;25.04;49.35
27805;BME280;15183;51.350;11.102;2023-06-19T05:43:36;99659.00;;;25.21;49.39
27805;BME280;15183;51.350;11.102;2023-06-19T05:46:02;99651.63;;;25.21;49.11
27805;BME280;15183;51.350;11.102;2023-06-19T05:48:29;99647.06;;;25.13;49.53
27805;BME280;15183;51.350;11.102;2023-06-19T05:50:55;99648.47;;;25.19;49.57
27805;BME280;15183;51.350;11.102;2023-06-19T05:53:22;99659.06;;;25.33;49.30
27805;BME280;15183;51.350;11.102;2023-06-19T05:55:48;99657.13;;;25.34;49.27
27805;BME280;15183;51.350;11.102;2023-06-19T05:58:15;99648.47;;;25.40;48.94
27805;BME280;15183;51.350;11.102;2023-06-19T06:00:41;99646.56;;;25.41;48.63
27805;BME280;15183;51.350;11.102;2023-06-19T06:03:07;99656.38;;;25.54;48.86
27805;BME280;15183;51.350;11.102;2023-06-19T06:05:34;99664.56;;;25.67;48.12
27805;BME280;15183;51.350;11.102;2023-06-19T06:08:02;99668.34;;;25.75;48.46
27805;BME280;15183;51.350;11.102;2023-06-19T06:10:29;99654.63;;;25.71;48.07
27805;BME280;15183;51.350;11.102;2023-06-19T06:12:55;99663.53;;;25.80;47.84
27805;BME280;15183;51.350;11.102;2023-06-19T06:15:21;99671.56;;;25.89;48.44
27805;BME280;15183;51.350;11.102;2023-06-19T06:17:48;99677.91;;;25.93;47.31
27805;BME280;15183;51.350;11.102;2023-06-19T06:20:14;99671.03;;;25.96;48.22
27805;BME280;15183;51.350;11.102;2023-06-19T06:22:42;99678.97;;;26.01;47.95
27805;BME280;15183;51.350;11.102;2023-06-19T06:25:09;99684.06;;;26.03;47.57
27805;BME280;15183;51.350;11.102;2023-06-19T06:27:38;99678.25;;;25.92;47.92
27805;BME280;15183;51.350;11.102;2023-06-19T06:30:05;99689.56;;;25.94;47.83
27805;BME280;15183;51.350;11.102;2023-06-19T06:32:31;99695.22;;;25.89;47.53
27805;BME280;15183;51.350;11.102;2023-06-19T06:34:58;99691.91;;;25.83;48.18
27805;BME280;15183;51.350;11.102;2023-06-19T06:37:25;99673.16;;;25.69;47.90
27805;BME280;15183;51.350;11.102;2023-06-19T06:39:52;99695.69;;;25.91;48.36
27805;BME280;15183;51.350;11.102;2023-06-19T06:42:18;99697.66;;;26.03;47.55
27805;BME280;15183;51.350;11.102;2023-06-19T06:44:45;99697.22;;;26.13;48.26
27805;BME280;15183;51.350;11.102;2023-06-19T06:47:11;99707.81;;;26.27;47.80
27805;BME280;15183;51.350;11.102;2023-06-19T06:49:38;99710.47;;;26.36;47.07
27805;BME280;15183;51.350;11.102;2023-06-19T06:52:05;99709.91;;;26.42;47.15
27805;BME280;15183;51.350;11.102;2023-06-19T06:54:32;99731.09;;;26.49;47.92
27805;BME280;15183;51.350;11.102;2023-06-19T06:56:58;99732.25;;;26.61;46.85
27805;BME280;15183;51.350;11.102;2023-06-19T06:59:26;99736.53;;;26.62;47.00
27805;BME280;15183;51.350;11.102;2023-06-19T07:01:54;99735.41;;;26.63;47.29
27805;BME280;15183;51.350;11.102;2023-06-19T07:04:22;99732.59;;;26.59;47.19
27805;BME280;15183;51.350;11.102;2023-06-19T07:06:49;99714.88;;;26.40;47.26
27805;BME280;15183;51.350;11.102;2023-06-19T07:09:15;99736.66;;;26.53;47.12
27805;BME280;15183;51.350;11.102;2023-06-19T07:11:42;99726.56;;;26.53;46.98
27805;BME280;15183;51.350;11.102;2023-06-19T07:14:08;99718.31;;;26.62;47.33
27805;BME280;15183;51.350;11.102;2023-06-19T07:16:35;99713.81;;;26.79;46.98
27805;BME280;15183;51.350;11.102;2023-06-19T07:19:01;99712.50;;;26.97;46.98
27805;BME280;15183;51.350;11.102;2023-06-19T07:21:28;99731.06;;;27.20;46.12
27805;BME280;15183;51.350;11.102;2023-06-19T07:23:56;99722.00;;;27.28;46.50
27805;BME280;15183;51.350;11.102;2023-06-19T07:26:23;99734.66;;;27.49;45.47
27805;BME280;15183;51.350;11.102;2023-06-19T07:28:50;99725.34;;;27.63;45.38
27805;BME280;15183;51.350;11.102;2023-06-19T07:31:16;99722.94;;;27.73;45.44
27805;BME280;15183;51.350;11.102;2023-06-19T07:33:42;99738.78;;;27.84;44.63
27805;BME280;15183;51.350;11.102;2023-06-19T07:36:09;99722.47;;;27.84;45.12
27805;BME280;15183;51.350;11.102;2023-06-19T07:38:41;99736.38;;;27.95;44.96
27805;BME280;15183;51.350;11.102;2023-06-19T07:41:08;99735.59;;;27.94;44.72
27805;BME280;15183;51.350;11.102;2023-06-19T07:43:37;99743.59;;;28.03;44.31
27805;BME280;15183;51.350;11.102;2023-06-19T07:46:04;99740.44;;;28.01;44.45
27805;BME280;15183;51.350;11.102;2023-06-19T07:48:30;99729.09;;;27.99;44.19
27805;BME280;15183;51.350;11.102;2023-06-19T07:50:57;99728.66;;;27.97;44.56
27805;BME280;15183;51.350;11.102;2023-06-19T07:53:23;99742.50;;;28.04;44.33
27805;BME280;15183;51.350;11.102;2023-06-19T07:55:49;99749.97;;;28.07;44.38
27805;BME280;15183;51.350;11.102;2023-06-19T07:58:16;99745.09;;;28.00;43.96
27805;BME280;15183;51.350;11.102;2023-06-19T08:00:42;99740.94;;;27.91;44.18
27805;BME280;15183;51.350;11.102;2023-06-19T08:03:09;99737.91;;;27.80;44.75
27805;BME280;15183;51.350;11.102;2023-06-19T08:05:35;99733.84;;;27.73;44.91
27805;BME280;15183;51.350;11.102;2023-06-19T08:08:02;99737.47;;;27.78;44.34
27805;BME280;15183;51.350;11.102;2023-06-19T08:10:28;99733.81;;;27.86;44.18
27805;BME280;15183;51.350;11.102;2023-06-19T08:12:54;99739.56;;;27.97;44.22
27805;BME280;15183;51.350;11.102;2023-06-19T08:15:21;99709.81;;;28.04;43.56
27805;BME280;15183;51.350;11.102;2023-06-19T08:17:47;99734.97;;;28.42;43.92
27805;BME280;15183;51.350;11.102;2023-06-19T08:20:14;99736.28;;;28.64;43.47
27805;BME280;15183;51.350;11.102;2023-06-19T08:22:40;99737.75;;;28.90;43.24
27805;BME280;15183;51.350;11.102;2023-06-19T08:25:07;99741.16;;;29.19;42.28
27805;BME280;15183;51.350;11.102;2023-06-19T08:27:34;99741.19;;;29.39;42.35
27805;BME280;15183;51.350;11.102;2023-06-19T08:30:00;99741.31;;;29.62;41.91
27805;BME280;15183;51.350;11.102;2023-06-19T08:32:26;99730.78;;;29.80;41.60
27805;BME280;15183;51.350;11.102;2023-06-19T08:34:53;99744.28;;;29.93;41.47
27805;BME280;15183;51.350;11.102;2023-06-19T08:37:19;99735.66;;;29.90;41.39
27805;BME280;15183;51.350;11.102;2023-06-19T08:39:46;99738.34;;;30.07;40.86
27805;BME280;15183;51.350;11.102;2023-06-19T08:42:12;99728.16;;;30.27;40.48
27805;BME280;15183;51.350;11.102;2023-06-19T08:44:38;99729.84;;;30.55;40.22
27805;BME280;15183;51.350;11.102;2023-06-19T08:47:05;99721.19;;;30.72;39.99
27805;BME280;15183;51.350;11.102;2023-06-19T08:49:36;99734.00;;;30.92;39.10
27805;BME280;15183;51.350;11.102;2023-06-19T08:52:03;99727.63;;;31.11;39.43
27805;BME280;15183;51.350;11.102;2023-06-19T08:54:30;99723.31;;;31.37;39.54
27805;BME280;15183;51.350;11.102;2023-06-19T08:57:01;99726.81;;;31.64;38.96
27805;BME280;15183;51.350;11.102;2023-06-19T08:59:27;99738.19;;;31.97;38.29
27805;BME280;15183;51.350;11.102;2023-06-19T09:01:55;99728.19;;;32.15;37.98
27805;BME280;15183;51.350;11.102;2023-06-19T09:04:26;99726.81;;;32.32;37.51
27805;BME280;15183;51.350;11.102;2023-06-19T09:07:01;99736.44;;;32.53;37.83
27805;BME280;15183;51.350;11.102;2023-06-19T09:09:28;99731.03;;;32.64;37.67
27805;BME280;15183;51.350;11.102;2023-06-19T09:12:07;99717.47;;;32.82;37.28
27805;BME280;15183;51.350;11.102;2023-06-19T09:14:42;99716.03;;;32.99;36.65
27805;BME280;15183;51.350;11.102;2023-06-19T09:17:19;99714.94;;;33.15;36.80
27805;BME280;15183;51.350;11.102;2023-06-19T09:19:53;99715.78;;;33.26;36.03
27805;BME280;15183;51.350;11.102;2023-06-19T09:22:23;99714.28;;;33.36;35.69
27805;BME280;15183;51.350;11.102;2023-06-19T09:24:51;99719.44;;;33.41;35.48
27805;BME280;15183;51.350;11.102;2023-06-19T09:27:19;99709.59;;;33.40;35.52
27805;BME280;15183;51.350;11.102;2023-06-19T09:29:50;99704.91;;;33.44;35.23
27805;BME280;15183;51.350;11.102;2023-06-19T09:32:25;99707.34;;;33.60;35.16
27805;BME280;15183;51.350;11.102;2023-06-19T09:34:57;99712.94;;;33.86;35.76
27805;BME280;15183;51.350;11.102;2023-06-19T09:37:30;99724.78;;;34.08;35.34
27805;BME280;15183;51.350;11.102;2023-06-19T09:40:02;99712.25;;;34.25;34.26
27805;BME280;15183;51.350;11.102;2023-06-19T09:42:41;99704.06;;;34.51;34.88
27805;BME280;15183;51.350;11.102;2023-06-19T09:45:13;99715.84;;;34.76;34.77
27805;BME280;15183;51.350;11.102;2023-06-19T09:47:47;99700.50;;;34.90;33.96
27805;BME280;15183;51.350;11.102;2023-06-19T09:50:15;99709.91;;;35.11;34.18
27805;BME280;15183;51.350;11.102;2023-06-19T09:52:43;99700.41;;;35.33;33.06
27805;BME280;15183;51.350;11.102;2023-06-19T09:55:11;99697.94;;;35.64;33.11
27805;BME280;15183;51.350;11.102;2023-06-19T09:57:42;99709.22;;;35.92;33.06
27805;BME280;15183;51.350;11.102;2023-06-19T10:00:11;99708.72;;;36.15;32.75
27805;BME280;15183;51.350;11.102;2023-06-19T10:02:42;99703.06;;;36.33;31.90
27805;BME280;15183;51.350;11.102;2023-06-19T10:05:09;99702.19;;;36.44;31.20
27805;BME280;15183;51.350;11.102;2023-06-19T10:07:45;99702.16;;;36.51;31.86
27805;BME280;15183;51.350;11.102;2023-06-19T10:10:33;99700.91;;;36.59;31.34
27805;BME280;15183;51.350;11.102;2023-06-19T10:13:13;99703.91;;;36.76;30.95
27805;BME280;15183;51.350;11.102;2023-06-19T10:15:44;99707.66;;;36.97;31.58
27805;BME280;15183;51.350;11.102;2023-06-19T10:18:18;99711.06;;;37.12;30.72
27805;BME280;15183;51.350;11.102;2023-06-19T10:20:45;99698.88;;;37.09;30.08
27805;BME280;15183;51.350;11.102;2023-06-19T10:23:20;99692.88;;;37.14;30.18
27805;BME280;15183;51.350;11.102;2023-06-19T10:28:30;99699.47;;;37.59;29.98
27805;BME280;15183;51.350;11.102;2023-06-19T10:31:01;99704.63;;;37.57;32.02
27805;BME280;15183;51.350;11.102;2023-06-19T10:33:33;99708.31;;;37.77;30.63
27805;BME280;15183;51.350;11.102;2023-06-19T10:36:13;99696.47;;;37.77;29.84
27805;BME280;15183;51.350;11.102;2023-06-19T10:38:40;99692.03;;;37.83;29.48
27805;BME280;15183;51.350;11.102;2023-06-19T10:41:19;99684.22;;;37.78;30.14
27805;BME280;15183;51.350;11.102;2023-06-19T10:46:35;99691.38;;;38.03;29.99
27805;BME280;15183;51.350;11.102;2023-06-19T10:49:04;99704.53;;;38.22;29.21
27805;BME280;15183;51.350;11.102;2023-06-19T10:51:34;99700.75;;;38.36;29.02
27805;BME280;15183;51.350;11.102;2023-06-19T10:54:01;99692.25;;;38.51;29.30
27805;BME280;15183;51.350;11.102;2023-06-19T10:56:27;99695.41;;;38.73;28.82
27805;BME280;15183;51.350;11.102;2023-06-19T10:59:06;99685.22;;;38.90;28.88
27805;BME280;15183;51.350;11.102;2023-06-19T11:01:46;99677.44;;;39.05;28.94
27805;BME280;15183;51.350;11.102;2023-06-19T11:04:15;99683.72;;;39.06;28.22
27805;BME280;15183;51.350;11.102;2023-06-19T11:06:44;99687.78;;;39.01;27.84
27805;BME280;15183;51.350;11.102;2023-06-19T11:09:13;99678.59;;;38.84;27.75
27805;BME280;15183;51.350;11.102;2023-06-19T11:11:42;99675.06;;;38.60;28.43
27805;BME280;15183;51.350;11.102;2023-06-19T11:14:11;99679.78;;;38.35;27.84
27805;BME280;15183;51.350;11.102;2023-06-19T11:16:41;99670.94;;;37.97;28.04
27805;BME280;15183;51.350;11.102;2023-06-19T11:19:13;99670.47;;;37.71;28.45
27805;BME280;15183;51.350;11.102;2023-06-19T11:21:40;99671.91;;;37.55;28.63
27805;BME280;15183;51.350;11.102;2023-06-19T11:24:12;99677.53;;;37.44;28.54
27805;BME280;15183;51.350;11.102;2023-06-19T11:26:44;99658.78;;;37.28;28.69
27805;BME280;15183;51.350;11.102;2023-06-19T11:29:19;99669.63;;;37.43;28.40
27805;BME280;15183;51.350;11.102;2023-06-19T11:31:47;99668.88;;;37.42;28.96
27805;BME280;15183;51.350;11.102;2023-06-19T11:34:15;99662.59;;;37.38;28.58
27805;BME280;15183;51.350;11.102;2023-06-19T11:36:44;99663.00;;;37.36;28.64
27805;BME280;15183;51.350;11.102;2023-06-19T11:39:12;99655.66;;;37.26;28.65
27805;BME280;15183;51.350;11.102;2023-06-19T11:41:43;99663.50;;;37.28;29.03
27805;BME280;15183;51.350;11.102;2023-06-19T11:44:10;99667.44;;;37.30;28.21
27805;BME280;15183;51.350;11.102;2023-06-19T11:46:37;99667.03;;;37.32;28.50
27805;BME280;15183;51.350;11.102;2023-06-19T11:51:40;99650.50;;;37.59;28.49
27805;BME280;15183;51.350;11.102;2023-06-19T11:54:09;99665.50;;;37.89;28.76
27805;BME280;15183;51.350;11.102;2023-06-19T11:56:37;99656.03;;;38.14;28.35
27805;BME280;15183;51.350;11.102;2023-06-19T11:59:04;99662.69;;;38.44;28.27
27805;BME280;15183;51.350;11.102;2023-06-19T12:01:35;99644.13;;;38.65;27.93
27805;BME280;15183;51.350;11.102;2023-06-19T12:04:03;99658.41;;;38.84;28.50
27805;BME280;15183;51.350;11.102;2023-06-19T12:06:30;99656.72;;;38.90;27.78
27805;BME280;15183;51.350;11.102;2023-06-19T12:08:57;99660.22;;;38.94;28.11
27805;BME280;15183;51.350;11.102;2023-06-19T12:11:23;99649.97;;;38.91;27.67
27805;BME280;15183;51.350;11.102;2023-06-19T12:13:51;99659.34;;;38.97;27.61
27805;BME280;15183;51.350;11.102;2023-06-19T12:16:19;99660.84;;;39.02;27.51
27805;BME280;15183;51.350;11.102;2023-06-19T12:18:46;99639.09;;;39.00;27.81
27805;BME280;15183;51.350;11.102;2023-06-19T12:21:12;99651.78;;;39.21;27.83
27805;BME280;15183;51.350;11.102;2023-06-19T12:23:38;99647.50;;;39.37;28.15
27805;BME280;15183;51.350;11.102;2023-06-19T12:26:05;99649.72;;;39.62;27.31
27805;BME280;15183;51.350;11.102;2023-06-19T12:28:31;99642.72;;;39.91;27.62
27805;BME280;15183;51.350;11.102;2023-06-19T12:30:58;99650.81;;;40.18;26.66
27805;BME280;15183;51.350;11.102;2023-06-19T12:33:24;99647.00;;;40.29;26.82
27805;BME280;15183;51.350;11.102;2023-06-19T12:35:51;99654.38;;;40.35;26.48
27805;BME280;15183;51.350;11.102;2023-06-19T12:38:17;99648.72;;;40.39;26.29
27805;BME280;15183;51.350;11.102;2023-06-19T12:40:44;99648.38;;;40.37;26.60
27805;BME280;15183;51.350;11.102;2023-06-19T12:43:11;99653.31;;;40.46;26.31
27805;BME280;15183;51.350;11.102;2023-06-19T12:45:37;99644.72;;;40.40;26.35
27805;BME280;15183;51.350;11.102;2023-06-19T12:48:05;99653.06;;;40.40;26.86
27805;BME280;15183;51.350;11.102;2023-06-19T12:50:31;99645.25;;;40.18;26.33
27805;BME280;15183;51.350;11.102;2023-06-19T12:52:58;99657.31;;;39.95;27.16
27805;BME280;15183;51.350;11.102;2023-06-19T12:55:24;99657.50;;;39.68;26.77
27805;BME280;15183;51.350;11.102;2023-06-19T12:57:51;99649.69;;;39.46;27.70
27805;BME280;15183;51.350;11.102;2023-06-19T13:00:17;99647.50;;;39.37;27.52
27805;BME280;15183;51.350;11.102;2023-06-19T13:02:44;99642.50;;;39.28;27.76